createdAt,value
2023-06-02T00:01:33.631Z,1.45
2023-06-02T00:04:03.382Z,1.30
2023-06-02T00:06:33.766Z,1.50
2023-06-02T00:09:01.819Z,1.67
2023-06-02T00:11:29.332Z,1.60
2023-06-02T00:13:56.209Z,1.20
2023-06-02T00:16:23.098Z,1.40
2023-06-02T00:18:50.011Z,1.57
2023-06-02T00:21:20.160Z,1.60
2023-06-02T00:23:47.576Z,1.33
2023-06-02T00:26:14.392Z,1.50
2023-06-02T00:28:41.196Z,1.25
2023-06-02T00:31:07.951Z,1.60
2023-06-02T00:33:35.417Z,1.45
2023-06-02T00:36:02.465Z,1.38
2023-06-02T00:38:29.330Z,1.90
2023-06-02T00:40:56.234Z,1.40
2023-06-02T00:43:23.048Z,2.00
2023-06-02T00:45:49.830Z,1.40
2023-06-02T00:48:16.593Z,1.60
2023-06-02T00:50:43.367Z,1.40
2023-06-02T00:53:11.214Z,1.50
2023-06-02T00:55:38.023Z,1.60
2023-06-02T00:58:05.286Z,1.50
2023-06-02T01:00:38.247Z,1.85
2023-06-02T01:03:05.579Z,1.63
2023-06-02T01:05:32.566Z,1.42
2023-06-02T01:08:00.772Z,1.53
2023-06-02T01:10:27.861Z,1.50
2023-06-02T01:12:55.013Z,1.30
2023-06-02T01:15:22.171Z,1.85
2023-06-02T01:17:51.976Z,1.80
2023-06-02T01:20:22.738Z,1.70
2023-06-02T01:22:57.833Z,1.35
2023-06-02T01:25:26.990Z,1.27
2023-06-02T01:27:53.801Z,1.13
2023-06-02T01:30:20.616Z,1.48
2023-06-02T01:32:56.040Z,1.50
2023-06-02T01:35:23.011Z,1.70
2023-06-02T01:37:55.364Z,1.30
2023-06-02T01:40:23.214Z,1.42
2023-06-02T01:42:49.932Z,1.90
2023-06-02T01:45:16.771Z,1.70
2023-06-02T01:47:43.482Z,1.70
2023-06-02T01:50:10.579Z,1.30
2023-06-02T01:52:37.372Z,1.25
2023-06-02T01:55:05.133Z,1.75
2023-06-02T01:57:33.913Z,1.40
2023-06-02T02:00:00.994Z,1.60
2023-06-02T02:02:27.923Z,1.30
2023-06-02T02:04:54.945Z,1.90
2023-06-02T02:07:21.774Z,1.73
2023-06-02T02:09:48.527Z,1.60
2023-06-02T02:12:15.317Z,1.30
2023-06-02T02:14:42.471Z,1.48
2023-06-02T02:17:11.199Z,1.90
2023-06-02T02:19:38.455Z,1.52
2023-06-02T02:22:05.682Z,1.67
2023-06-02T02:24:32.466Z,1.75
2023-06-02T02:26:59.231Z,1.20
2023-06-02T02:29:26.007Z,1.70
2023-06-02T02:31:52.950Z,1.40
2023-06-02T02:34:21.065Z,1.77
2023-06-02T02:36:49.679Z,1.80
2023-06-02T02:39:17.100Z,1.50
2023-06-02T02:41:43.888Z,1.63
2023-06-02T02:44:10.774Z,1.25
2023-06-02T02:46:37.691Z,1.97
2023-06-02T02:49:04.514Z,1.90
2023-06-02T02:51:31.399Z,1.55
2023-06-02T02:53:58.236Z,1.77
2023-06-02T02:56:25.123Z,1.63
2023-06-02T02:58:51.985Z,1.90
2023-06-02T03:01:18.888Z,1.60
2023-06-02T03:03:45.971Z,1.60
2023-06-02T03:06:19.433Z,1.50
2023-06-02T03:08:49.338Z,1.52
2023-06-02T03:11:16.268Z,1.73
2023-06-02T03:13:43.051Z,1.73
2023-06-02T03:16:09.854Z,1.40
2023-06-02T03:18:36.687Z,1.48
2023-06-02T03:21:06.470Z,1.38
2023-06-02T03:23:33.301Z,1.60
2023-06-02T03:26:04.271Z,1.52
2023-06-02T03:28:31.264Z,1.27
2023-06-02T03:30:58.109Z,1.70
2023-06-02T03:33:24.860Z,1.45
2023-06-02T03:35:51.767Z,1.33
2023-06-02T03:38:18.598Z,1.42
2023-06-02T03:40:45.544Z,1.10
2023-06-02T03:43:12.328Z,1.50
2023-06-02T03:45:39.131Z,1.40
2023-06-02T03:48:06.268Z,1.17
2023-06-02T03:50:33.211Z,1.48
2023-06-02T03:53:00.077Z,1.48
2023-06-02T03:55:27.042Z,1.40
2023-06-02T03:57:53.839Z,1.60
2023-06-02T04:00:20.647Z,1.47
2023-06-02T04:02:47.460Z,2.00
2023-06-02T04:05:15.681Z,1.30
2023-06-02T04:07:42.594Z,1.48
2023-06-02T04:10:09.967Z,1.35
2023-06-02T04:12:36.824Z,1.60
2023-06-02T04:15:04.977Z,1.10
2023-06-02T04:17:31.946Z,1.30
2023-06-02T04:19:58.761Z,1.50
2023-06-02T04:22:25.531Z,1.40
2023-06-02T04:24:52.337Z,1.40
2023-06-02T04:27:19.556Z,1.83
2023-06-02T04:29:47.081Z,1.00
2023-06-02T04:32:14.017Z,1.42
2023-06-02T04:34:41.077Z,1.38
2023-06-02T04:37:08.661Z,1.43
2023-06-02T04:39:36.574Z,1.65
2023-06-02T04:42:04.637Z,1.33
2023-06-02T04:44:31.529Z,1.60
2023-06-02T04:46:58.504Z,1.40
2023-06-02T04:49:25.780Z,1.30
2023-06-02T04:51:52.706Z,1.38
2023-06-02T04:54:19.615Z,1.30
2023-06-02T04:56:46.635Z,1.30
2023-06-02T04:59:13.470Z,1.38
2023-06-02T05:01:40.841Z,1.80
2023-06-02T05:04:07.800Z,1.40
2023-06-02T05:06:34.689Z,1.55
2023-06-02T05:09:04.535Z,1.42
2023-06-02T05:11:31.840Z,1.70
2023-06-02T05:13:58.837Z,1.40
2023-06-02T05:16:25.822Z,1.20
2023-06-02T05:18:52.791Z,1.63
2023-06-02T05:21:19.791Z,1.40
2023-06-02T05:23:46.705Z,1.23
2023-06-02T05:26:13.885Z,1.23
2023-06-02T05:28:41.705Z,1.25
2023-06-02T05:31:08.655Z,1.25
2023-06-02T05:33:35.802Z,1.50
2023-06-02T05:36:02.800Z,1.30
2023-06-02T05:38:29.709Z,1.87
2023-06-02T05:40:56.522Z,1.67
2023-06-02T05:43:23.438Z,1.48
2023-06-02T05:45:50.431Z,1.40
2023-06-02T05:48:17.528Z,1.67
2023-06-02T05:50:44.550Z,1.53
2023-06-02T05:53:11.358Z,1.90
2023-06-02T05:55:38.985Z,2.00
2023-06-02T05:58:05.920Z,1.50
2023-06-02T06:00:33.055Z,1.73
2023-06-02T06:02:59.959Z,1.53
2023-06-02T06:05:27.067Z,1.60
2023-06-02T06:07:53.921Z,1.52
2023-06-02T06:10:20.966Z,2.00
2023-06-02T06:12:47.785Z,1.50
2023-06-02T06:15:14.721Z,1.80
2023-06-02T06:17:52.651Z,1.38
2023-06-02T06:20:20.488Z,1.27
2023-06-02T06:22:47.451Z,1.85
2023-06-02T06:25:14.316Z,1.40
2023-06-02T06:27:41.104Z,1.70
2023-06-02T06:30:08.417Z,1.48
2023-06-02T06:32:35.288Z,1.20
2023-06-02T06:35:02.176Z,1.88
2023-06-02T06:37:48.065Z,1.73
2023-06-02T06:40:29.950Z,2.30
2023-06-02T06:53:49.619Z,1.58
2023-06-02T06:56:16.470Z,1.70
2023-06-02T06:58:43.401Z,1.30
2023-06-02T07:01:10.291Z,1.40
2023-06-02T07:03:37.316Z,1.60
2023-06-02T07:06:04.902Z,1.58
2023-06-02T07:08:32.065Z,1.73
2023-06-02T07:10:59.110Z,1.40
2023-06-02T07:13:26.925Z,1.80
2023-06-02T07:15:53.706Z,1.30
2023-06-02T07:18:22.486Z,1.60
2023-06-02T07:20:49.396Z,1.60
2023-06-02T07:23:16.818Z,1.77
2023-06-02T07:25:44.070Z,1.50
2023-06-02T07:28:10.925Z,1.58
2023-06-02T07:30:37.848Z,1.40
2023-06-02T07:33:04.792Z,1.70
2023-06-02T07:35:31.861Z,1.35
2023-06-02T07:37:58.651Z,1.10
2023-06-02T07:40:25.829Z,1.70
2023-06-02T07:42:52.723Z,1.38
2023-06-02T07:45:19.618Z,1.40
2023-06-02T07:47:46.977Z,1.42
2023-06-02T07:50:13.863Z,1.50
2023-06-02T07:52:40.651Z,1.40
2023-06-02T07:55:07.936Z,1.08
2023-06-02T07:57:34.822Z,1.60
2023-06-02T08:00:19.398Z,1.58
2023-06-02T08:02:48.486Z,1.88
2023-06-02T08:05:16.385Z,1.52
2023-06-02T08:07:43.803Z,1.65
2023-06-02T08:10:10.988Z,1.47
2023-06-02T08:12:37.993Z,1.42
2023-06-02T08:15:05.395Z,1.40
2023-06-02T08:17:32.286Z,1.33
2023-06-02T08:20:02.456Z,1.58
2023-06-02T08:22:30.242Z,1.87
2023-06-02T08:24:58.156Z,1.83
2023-06-02T08:27:25.196Z,1.45
2023-06-02T08:29:52.430Z,1.70
2023-06-02T08:32:19.974Z,1.48
2023-06-02T08:34:48.476Z,1.00
2023-06-02T08:37:18.731Z,1.50
2023-06-02T08:39:46.339Z,1.40
2023-06-02T08:42:13.354Z,1.20
2023-06-02T08:44:41.980Z,1.27
2023-06-02T08:47:11.397Z,1.30
2023-06-02T08:49:48.102Z,1.50
2023-06-02T08:52:24.928Z,1.75
2023-06-02T08:54:51.845Z,1.67
2023-06-02T08:57:23.759Z,1.77
2023-06-02T08:59:50.732Z,1.83
2023-06-02T09:02:17.877Z,1.17
2023-06-02T09:04:44.646Z,1.92
2023-06-02T09:07:14.405Z,1.58
2023-06-02T09:09:42.403Z,1.42
2023-06-02T09:12:09.719Z,1.83
2023-06-02T09:14:36.982Z,1.50
2023-06-02T09:17:04.090Z,1.50
2023-06-02T09:19:53.501Z,1.48
2023-06-02T09:22:20.179Z,1.40
2023-06-02T09:24:46.888Z,1.50
2023-06-02T09:27:14.255Z,1.38
2023-06-02T09:29:41.336Z,0.77
2023-06-02T09:32:15.754Z,1.35
2023-06-02T09:34:42.855Z,1.55
2023-06-02T09:37:16.377Z,1.50
2023-06-02T09:39:44.813Z,1.70
2023-06-02T09:42:16.892Z,1.60
2023-06-02T09:45:05.684Z,1.73
2023-06-02T09:47:42.465Z,1.80
2023-06-02T09:50:10.451Z,1.90
2023-06-02T09:52:38.437Z,1.40
2023-06-02T09:55:05.984Z,1.08
2023-06-02T09:57:32.746Z,1.60
2023-06-02T10:00:00.160Z,1.95
2023-06-02T10:02:27.593Z,1.53
2023-06-02T10:04:54.386Z,2.40
2023-06-02T10:07:42.535Z,1.77
2023-06-02T10:10:30.908Z,0.95
2023-06-02T10:13:16.388Z,0.88
2023-06-02T10:16:04.584Z,1.73
2023-06-02T10:19:08.622Z,1.45
2023-06-02T10:21:41.568Z,1.38
2023-06-02T10:24:18.718Z,1.33
2023-06-02T10:26:56.733Z,1.42
2023-06-02T10:29:25.650Z,1.90
2023-06-02T10:31:52.439Z,1.58
2023-06-02T10:34:38.883Z,1.70
2023-06-02T10:37:05.813Z,1.80
2023-06-02T10:39:54.273Z,1.40
2023-06-02T10:42:25.816Z,0.90
2023-06-02T10:44:56.033Z,1.48
2023-06-02T10:47:22.734Z,1.60
2023-06-02T10:49:59.764Z,1.55
2023-06-02T10:52:27.037Z,1.75
2023-06-02T10:55:12.369Z,1.67
2023-06-02T10:57:52.234Z,1.00
2023-06-02T11:00:34.379Z,1.50
2023-06-02T11:03:01.581Z,0.60
2023-06-02T11:05:29.450Z,1.65
2023-06-02T11:08:23.052Z,1.83
2023-06-02T11:10:58.510Z,1.50
2023-06-02T11:13:26.102Z,1.52
2023-06-02T11:15:59.350Z,1.83
2023-06-02T11:18:34.844Z,1.58
2023-06-02T11:21:04.638Z,1.77
2023-06-02T11:23:31.911Z,1.70
2023-06-02T11:26:01.983Z,1.27
2023-06-02T11:28:29.130Z,1.60
2023-06-02T11:31:23.555Z,1.70
2023-06-02T11:33:52.148Z,1.70
2023-06-02T11:36:29.427Z,1.85
2023-06-02T11:39:06.237Z,1.50
2023-06-02T11:41:33.399Z,1.60
2023-06-02T11:44:07.806Z,1.60
2023-06-02T11:46:34.634Z,1.73
2023-06-02T11:49:02.301Z,1.50
2023-06-02T11:51:29.201Z,1.65
2023-06-02T11:54:08.191Z,2.03
2023-06-02T11:56:36.525Z,1.50
2023-06-02T11:59:03.455Z,1.50
2023-06-02T12:01:33.436Z,1.50
2023-06-02T12:04:12.873Z,1.52
2023-06-02T12:06:46.814Z,1.48
2023-06-02T12:09:14.850Z,1.90
2023-06-02T12:11:41.806Z,1.73
2023-06-02T12:14:09.343Z,1.90
2023-06-02T12:16:39.034Z,1.00
2023-06-02T12:19:22.590Z,1.23
2023-06-02T12:21:53.377Z,1.77
2023-06-02T12:24:35.224Z,1.67
2023-06-02T12:27:02.062Z,1.80
2023-06-02T12:29:28.851Z,1.63
2023-06-02T12:31:58.945Z,1.23
2023-06-02T12:34:26.006Z,1.52
2023-06-02T12:36:52.889Z,1.53
2023-06-02T12:39:19.866Z,1.38
2023-06-02T12:41:46.608Z,1.30
2023-06-02T12:44:13.384Z,1.80
2023-06-02T12:46:41.229Z,1.80
2023-06-02T12:49:10.346Z,1.20
2023-06-02T12:51:37.430Z,1.40
2023-06-02T12:54:04.257Z,1.67
2023-06-02T12:56:33.079Z,1.60
2023-06-02T12:59:01.680Z,1.70
2023-06-02T13:01:28.696Z,1.40
2023-06-02T13:03:57.265Z,1.77
2023-06-02T13:06:25.312Z,1.70
2023-06-02T13:08:52.421Z,1.40
2023-06-02T13:11:19.377Z,1.73
2023-06-02T13:13:47.029Z,1.50
2023-06-02T13:16:13.824Z,1.80
2023-06-02T13:18:43.297Z,1.65
2023-06-02T13:21:10.174Z,1.65
2023-06-02T13:23:37.295Z,2.03
2023-06-02T13:26:04.711Z,1.90
2023-06-02T13:28:31.991Z,1.42
2023-06-02T13:30:59.658Z,1.77
2023-06-02T13:33:26.929Z,1.35
2023-06-02T13:35:53.682Z,1.33
2023-06-02T13:38:20.567Z,1.10
2023-06-02T13:40:47.811Z,1.45
2023-06-02T13:43:14.609Z,0.80
2023-06-02T13:45:41.351Z,1.35
2023-06-02T13:48:09.603Z,1.60
2023-06-02T13:50:36.527Z,1.67
2023-06-02T13:53:03.574Z,1.15
2023-06-02T13:55:31.419Z,1.30
2023-06-02T13:57:58.373Z,1.00
2023-06-02T14:00:25.162Z,1.17
2023-06-02T14:02:52.545Z,0.97
2023-06-02T14:05:19.505Z,1.50
2023-06-02T14:07:46.279Z,1.48
2023-06-02T14:10:13.005Z,1.65
2023-06-02T14:12:39.757Z,1.52
2023-06-02T14:15:07.102Z,1.63
2023-06-02T14:17:33.898Z,1.55
2023-06-02T14:20:00.885Z,1.60
2023-06-02T14:22:27.703Z,1.38
2023-06-02T14:24:54.444Z,1.27
2023-06-02T14:27:21.187Z,1.60
2023-06-02T14:29:48.097Z,1.92
2023-06-02T14:32:14.883Z,1.45
2023-06-02T14:34:41.622Z,1.40
2023-06-02T14:37:09.410Z,1.60
2023-06-02T14:39:37.041Z,1.33
2023-06-02T14:42:03.874Z,1.65
2023-06-02T14:44:30.774Z,1.35
2023-06-02T14:46:57.527Z,1.88
2023-06-02T14:49:24.512Z,1.58
2023-06-02T14:51:51.349Z,1.40
2023-06-02T14:54:18.131Z,1.52
2023-06-02T14:56:44.852Z,1.80
2023-06-02T14:59:12.357Z,1.38
2023-06-02T15:01:39.221Z,1.60
2023-06-02T15:04:06.327Z,1.27
2023-06-02T15:06:33.120Z,1.58
2023-06-02T15:09:00.160Z,1.42
2023-06-02T15:11:28.226Z,1.13
2023-06-02T15:13:55.607Z,1.58
2023-06-02T15:16:22.517Z,1.50
2023-06-02T15:18:53.305Z,1.98
2023-06-02T15:21:21.866Z,2.10
2023-06-02T15:23:48.791Z,1.80
2023-06-02T15:26:16.225Z,1.60
2023-06-02T15:28:44.024Z,1.23
2023-06-02T15:31:11.122Z,1.27
2023-06-02T15:33:38.188Z,1.30
2023-06-02T15:36:05.497Z,1.85
2023-06-02T15:38:32.525Z,0.88
2023-06-02T15:40:59.302Z,1.20
2023-06-02T15:43:26.144Z,0.95
2023-06-02T15:45:52.947Z,1.00
2023-06-02T15:48:19.809Z,1.10
2023-06-02T15:50:46.586Z,0.90
2023-06-02T15:53:13.376Z,1.33
2023-06-02T15:55:40.396Z,1.13
2023-06-02T15:58:07.259Z,1.00
2023-06-02T16:00:34.125Z,0.95
2023-06-02T16:03:02.298Z,1.00
2023-06-02T16:05:29.118Z,0.97
2023-06-02T16:07:57.026Z,1.00
2023-06-02T16:10:23.781Z,1.25
2023-06-02T16:12:52.518Z,0.77
2023-06-02T16:15:19.367Z,1.17
2023-06-02T16:17:46.256Z,0.90
2023-06-02T16:20:13.150Z,1.00
2023-06-02T16:22:39.914Z,1.10
2023-06-02T16:25:07.972Z,1.20
2023-06-02T16:27:36.263Z,0.80
2023-06-02T16:30:04.659Z,1.10
2023-06-02T16:32:31.755Z,0.82
2023-06-02T16:34:58.770Z,0.80
2023-06-02T16:37:25.462Z,1.20
2023-06-02T16:39:52.205Z,0.98
2023-06-02T16:42:18.915Z,1.27
2023-06-02T16:44:45.776Z,0.80
2023-06-02T16:47:12.618Z,1.10
2023-06-02T16:49:39.971Z,0.90
2023-06-02T16:52:07.423Z,0.60
2023-06-02T16:54:34.992Z,0.83
2023-06-02T16:57:01.805Z,0.85
2023-06-02T16:59:28.656Z,1.10
2023-06-02T17:01:55.478Z,0.82
2023-06-02T17:04:22.404Z,0.70
2023-06-02T17:06:49.300Z,1.00
2023-06-02T17:09:17.436Z,1.10
2023-06-02T17:11:44.342Z,1.13
2023-06-02T17:14:11.115Z,1.30
2023-06-02T17:16:38.027Z,0.90
2023-06-02T17:19:07.758Z,1.00
2023-06-02T17:21:34.747Z,1.00
2023-06-02T17:24:01.596Z,0.90
2023-06-02T17:26:28.397Z,1.05
2023-06-02T17:28:55.727Z,1.00
2023-06-02T17:31:22.826Z,1.00
2023-06-02T17:33:49.608Z,1.20
2023-06-02T17:36:16.415Z,1.00
2023-06-02T17:38:43.221Z,0.90
2023-06-02T17:41:11.204Z,0.95
2023-06-02T17:43:38.159Z,0.90
2023-06-02T17:46:04.997Z,0.70
2023-06-02T17:48:31.747Z,0.90
2023-06-02T17:50:58.532Z,1.00
2023-06-02T17:53:25.270Z,1.05
2023-06-02T17:55:52.253Z,0.60
2023-06-02T17:58:19.217Z,0.88
2023-06-02T18:00:46.200Z,0.77
2023-06-02T18:03:13.244Z,0.90
2023-06-02T18:05:40.149Z,0.90
2023-06-02T18:08:07.000Z,1.07
2023-06-02T18:10:34.109Z,1.00
2023-06-02T18:13:03.624Z,0.90
2023-06-02T18:15:30.755Z,0.80
2023-06-02T18:17:57.720Z,0.63
2023-06-02T18:20:24.657Z,1.10
2023-06-02T18:22:51.558Z,0.70
2023-06-02T18:25:18.315Z,1.00
2023-06-02T18:27:45.104Z,1.00
2023-06-02T18:30:12.162Z,0.85
2023-06-02T18:32:38.937Z,1.07
2023-06-02T18:35:06.174Z,1.08
2023-06-02T18:37:32.984Z,1.10
2023-06-02T18:39:59.743Z,1.00
2023-06-02T18:42:26.464Z,1.20
2023-06-02T18:44:53.246Z,1.13
2023-06-02T18:47:21.246Z,1.20
2023-06-02T18:49:48.101Z,1.35
2023-06-02T18:52:14.817Z,1.20
2023-06-02T18:54:43.054Z,1.00
2023-06-02T18:57:10.729Z,1.03
2023-06-02T18:59:37.562Z,1.30
2023-06-02T19:02:04.873Z,1.10
2023-06-02T19:04:33.235Z,0.88
2023-06-02T19:07:01.173Z,1.02
2023-06-02T19:09:28.043Z,1.00
2023-06-02T19:11:54.897Z,1.00
2023-06-02T19:14:21.789Z,1.15
2023-06-02T19:16:48.658Z,1.00
2023-06-02T19:19:15.498Z,0.77
2023-06-02T19:21:42.358Z,1.00
2023-06-02T19:24:09.258Z,0.93
2023-06-02T19:26:36.066Z,1.05
2023-06-02T19:29:02.990Z,1.20
2023-06-02T19:31:29.807Z,0.90
2023-06-02T19:33:56.673Z,1.30
2023-06-02T19:36:23.393Z,1.08
2023-06-02T19:38:50.357Z,1.10
2023-06-02T19:41:17.105Z,1.00
2023-06-02T19:43:43.844Z,0.95
2023-06-02T19:46:10.933Z,1.00
2023-06-02T19:48:38.299Z,1.00
2023-06-02T19:51:05.192Z,1.20
2023-06-02T19:53:32.000Z,1.30
2023-06-02T19:55:58.768Z,1.40
2023-06-02T19:58:25.555Z,1.37
2023-06-02T20:00:52.410Z,1.23
2023-06-02T20:03:19.277Z,1.08
2023-06-02T20:05:46.096Z,1.27
2023-06-02T20:08:12.898Z,1.17
2023-06-02T20:10:39.633Z,1.27
2023-06-02T20:13:06.501Z,1.20
2023-06-02T20:15:33.345Z,1.15
2023-06-02T20:18:00.072Z,1.42
2023-06-02T20:20:26.956Z,1.20
2023-06-02T20:22:54.752Z,1.30
2023-06-02T20:25:21.638Z,1.20
2023-06-02T20:27:48.416Z,1.08
2023-06-02T20:30:15.398Z,1.30
2023-06-02T20:32:42.268Z,1.17
2023-06-02T20:35:09.671Z,1.17
2023-06-02T20:37:38.355Z,1.08
2023-06-02T20:40:06.629Z,0.82
2023-06-02T20:42:33.441Z,1.00
2023-06-02T20:45:00.190Z,1.20
2023-06-02T20:47:26.910Z,1.30
2023-06-02T20:49:53.696Z,1.30
2023-06-02T20:52:20.617Z,1.08
2023-06-02T20:54:47.428Z,1.08
2023-06-02T20:57:14.347Z,1.35
2023-06-02T20:59:41.089Z,1.40
2023-06-02T21:02:07.810Z,1.30
2023-06-02T21:04:34.566Z,1.50
2023-06-02T21:07:01.288Z,1.35
2023-06-02T21:09:28.225Z,1.27
2023-06-02T21:11:55.369Z,1.20
2023-06-02T21:14:22.135Z,1.45
2023-06-02T21:16:48.904Z,1.40
2023-06-02T21:19:15.641Z,1.30
2023-06-02T21:21:42.404Z,1.50
2023-06-02T21:24:09.410Z,1.53
2023-06-02T21:26:36.273Z,1.80
2023-06-02T21:29:03.445Z,1.60
2023-06-02T21:31:30.237Z,1.42
2023-06-02T21:33:56.908Z,1.58
2023-06-02T21:36:23.720Z,1.50
2023-06-02T21:38:50.528Z,1.70
2023-06-02T21:41:17.285Z,1.52
2023-06-02T21:43:44.121Z,1.80
2023-06-02T21:46:11.000Z,1.75
2023-06-02T21:48:37.893Z,1.67
2023-06-02T21:51:05.146Z,1.77
2023-06-02T21:53:32.110Z,1.40
2023-06-02T21:55:58.830Z,1.90
2023-06-02T21:58:25.632Z,1.95
2023-06-02T22:00:52.440Z,2.20
2023-06-02T22:03:19.353Z,2.03
2023-06-02T22:05:46.294Z,2.30
2023-06-02T22:08:13.066Z,2.40
2023-06-02T22:10:40.094Z,1.73
2023-06-02T22:13:06.943Z,2.00
2023-06-02T22:15:33.683Z,1.83
2023-06-02T22:18:00.440Z,1.92
2023-06-02T22:20:27.354Z,1.90
2023-06-02T22:22:54.118Z,1.95
2023-06-02T22:25:21.045Z,2.30
2023-06-02T22:27:47.788Z,2.20
2023-06-02T22:30:16.224Z,1.77
2023-06-02T22:32:43.010Z,2.30
2023-06-02T22:35:10.015Z,2.30
2023-06-02T22:37:37.132Z,2.07
2023-06-02T22:40:04.093Z,2.17
2023-06-02T22:42:30.829Z,2.28
2023-06-02T22:44:58.927Z,1.90
2023-06-02T22:47:26.330Z,1.83
2023-06-02T22:49:53.124Z,2.20
2023-06-02T22:52:19.900Z,1.98
2023-06-02T22:54:46.625Z,2.10
2023-06-02T22:57:13.506Z,1.98
2023-06-02T22:59:40.212Z,1.90
2023-06-02T23:02:07.188Z,2.20
2023-06-02T23:04:33.972Z,2.15
2023-06-02T23:07:00.807Z,1.95
2023-06-02T23:09:27.547Z,2.20
2023-06-02T23:11:54.365Z,2.30
2023-06-02T23:14:21.077Z,2.00
2023-06-02T23:16:48.582Z,1.83
2023-06-02T23:19:15.621Z,1.98
2023-06-02T23:21:42.448Z,1.83
2023-06-02T23:24:09.246Z,1.80
2023-06-02T23:26:36.233Z,2.03
2023-06-02T23:29:03.019Z,1.80
2023-06-02T23:31:30.361Z,2.20
2023-06-02T23:33:57.215Z,2.42
2023-06-02T23:36:23.967Z,2.40
2023-06-02T23:38:50.766Z,2.23
2023-06-02T23:41:17.538Z,2.00
2023-06-02T23:43:44.274Z,2.40
2023-06-02T23:46:11.068Z,2.40
2023-06-02T23:48:37.931Z,2.65
2023-06-02T23:51:04.943Z,2.10
2023-06-02T23:53:34.898Z,2.35
2023-06-02T23:56:01.674Z,2.38
2023-06-02T23:58:28.536Z,2.30
